This is the latest recevied weather packets stored in our database for station/object KQ4OSL. If no packets are shown the sender has not sent any weather packets the latest 10 day(s).
| Time | Temp. | Humidity | Pressure | Rain* | Wind** | Luminosity | Snow |
|---|---|---|---|---|---|---|---|
| 1777752553 | 18.33° C | 38% | 1015 hPa | 0 mm | - | 533 W/m² | - |
| 1777752248 | 18.33° C | 38% | 1015.1 hPa | 0 mm | - | 547 W/m² | - |
| 1777751946 | 18.33° C | 40% | 1015 hPa | 0 mm | - | 559 W/m² | - |
| 1777751643 | 18.33° C | 41% | 1015.2 hPa | 0 mm | - | 574 W/m² | - |
| 1777751339 | 18.33° C | 39% | 1015.2 hPa | 0 mm | - | 584 W/m² | - |
| 1777751036 | 18.33° C | 40% | 1015.2 hPa | 0 mm | - | 595 W/m² | - |
| 1777750732 | 17.78° C | 37% | 1015.3 hPa | 0 mm | - | 605 W/m² | - |
| 1777750429 | 18.33° C | 39% | 1015.1 hPa | 0 mm | - | 616 W/m² | - |
| 1777750124 | 18.33° C | 41% | 1015.1 hPa | 0 mm | - | 626 W/m² | - |
| 1777749822 | 18.33° C | 37% | 1015.1 hPa | 0 mm | - | 635 W/m² | - |
| 1777749519 | 18.33° C | 38% | 1015.2 hPa | 0 mm | - | 647 W/m² | - |
| 1777749217 | 18.33° C | 46% | 1014.9 hPa | 0 mm | - | 654 W/m² | - |
| 1777748914 | 18.89° C | 45% | 1015.2 hPa | 0 mm | - | 663 W/m² | - |
| 1777748611 | 18.33° C | 45% | 1015 hPa | 0 mm | - | 671 W/m² | - |
| 1777748307 | 18.33° C | 42% | 1015 hPa | 0 mm | - | 682 W/m² | - |
| 1777748002 | 18.33° C | 40% | 1015.4 hPa | 0 mm | - | 690 W/m² | - |
| 1777747700 | 18.33° C | 43% | 1015 hPa | 0 mm | - | 698 W/m² | - |
| 1777747395 | 18.33° C | 46% | 1015.1 hPa | 0 mm | - | 704 W/m² | - |
| 1777747092 | 17.78° C | 42% | 1015.1 hPa | 0 mm | - | 713 W/m² | - |
| 1777746788 | 17.78° C | 43% | 1015 hPa | 0 mm | - | 721 W/m² | - |
| 1777746483 | 17.78° C | 42% | 1015 hPa | 0 mm | - | 724 W/m² | - |
| 1777746179 | 18.89° C | 42% | 1015.1 hPa | 0 mm | - | 730 W/m² | - |
| 1777745876 | 18.33° C | 49% | 1014.9 hPa | 0 mm | - | 734 W/m² | - |
| 1777745575 | 18.33° C | 48% | 1014.9 hPa | 0 mm | - | 738 W/m² | - |
| 1777745272 | 18.33° C | 47% | 1014.8 hPa | 0 mm | - | 743 W/m² | - |
* Rain latest hour (hover to see other rain measurements)
** Current wind speed in m/s (hover to see current wind gust speed)